Accueil
METAR-TAF:

METAR-TAF

Aéroports :

Shanghai-Pudong, Chine

Aéroport international de Shanghai-Pudong

latitude: 31-07N, longitude: 121-46E, altitude: 4 m

Observation

Le bulletin a été fait il y a 23 minutes, à 16:00 UTC
Vent 6 kt de ouest/sud-ouest, variant entre sud-ouest et ouest
Température 28°C
Humidité 89%
Pression 1008 hPa
Visibilité: 6000 m

METAR: ZSPD 261600Z 25003MPS 220V280 6000 NSC 28/26 Q1008 NOSIG

Heure: 00:23 (16:23 UTC)

Prévision

Le bulletin a été fait il y a 7 heures et 12 minutes, à 09:11 UTC
Prévision valable du 26 à 12 UTC au 27 à 12 UTC
Vent 6 kt de ouest/sud-ouest
Visibilité: 5000 m
Nuages fragmentés à une hauteur de 1300 ft
brume
Evoluant progressivement
du 26 à 16 UTC au 26 à 18 UTC
Vent 8 kt de ouest/nord-ouest

TAF: ZSPD 260911Z 2612/2712 25003MPS 5000 BR BKN013 TX31/2706Z TN22/2621Z BECMG 2616/2618 29004MPS

Observations et prévisions météorologiques de plus de 4000 aéroports (messages METAR et TAF).

Les stations disponibles sont représentées par des disques jaunes et rouges sur la carte.

Passer la souris dessus pour voir le nom de la station.

Cliquer dessus pour voir les observations et prévisions météorologiques.

Pour changer de carte: cliquez sur les boutons verts avec une croix noire pour zoomer, sur le bouton vert avec un tiret pour effectuer un zoom arrière, ou sur les flèches vertes pour les cartes adjacentes.


METAR-TAF: